sensor_id;sensor_type;location;lat;lon;timestamp;P1;durP1;ratioP1;P2;durP2;ratioP2
10550;SDS011;5324;50.684;3.862;2023-04-06T00:01:06;16.67;;;11.53;;
10550;SDS011;5324;50.684;3.862;2023-04-06T00:03:32;19.13;;;11.23;;
10550;SDS011;5324;50.684;3.862;2023-04-06T00:05:58;24.03;;;12.90;;
10550;SDS011;5324;50.684;3.862;2023-04-06T00:08:25;17.00;;;11.57;;
10550;SDS011;5324;50.684;3.862;2023-04-06T00:10:51;19.40;;;12.33;;
10550;SDS011;5324;50.684;3.862;2023-04-06T00:13:17;16.97;;;11.13;;
10550;SDS011;5324;50.684;3.862;2023-04-06T00:15:43;18.87;;;12.10;;
10550;SDS011;5324;50.684;3.862;2023-04-06T00:18:09;17.80;;;11.63;;
10550;SDS011;5324;50.684;3.862;2023-04-06T00:20:35;18.47;;;11.67;;
10550;SDS011;5324;50.684;3.862;2023-04-06T00:23:01;18.53;;;12.67;;
10550;SDS011;5324;50.684;3.862;2023-04-06T00:25:27;18.10;;;13.17;;
10550;SDS011;5324;50.684;3.862;2023-04-06T00:27:53;21.07;;;13.73;;
10550;SDS011;5324;50.684;3.862;2023-04-06T00:30:19;18.07;;;13.07;;
10550;SDS011;5324;50.684;3.862;2023-04-06T00:32:45;19.07;;;13.17;;
10550;SDS011;5324;50.684;3.862;2023-04-06T00:35:11;20.30;;;12.40;;
10550;SDS011;5324;50.684;3.862;2023-04-06T00:37:37;19.60;;;12.47;;
10550;SDS011;5324;50.684;3.862;2023-04-06T00:40:04;17.43;;;12.70;;
10550;SDS011;5324;50.684;3.862;2023-04-06T00:42:30;18.30;;;12.27;;
10550;SDS011;5324;50.684;3.862;2023-04-06T00:44:57;20.73;;;12.47;;
10550;SDS011;5324;50.684;3.862;2023-04-06T00:47:24;17.07;;;12.37;;
10550;SDS011;5324;50.684;3.862;2023-04-06T00:49:51;18.80;;;12.97;;
10550;SDS011;5324;50.684;3.862;2023-04-06T00:52:17;16.37;;;11.20;;
10550;SDS011;5324;50.684;3.862;2023-04-06T00:54:43;20.03;;;11.87;;
10550;SDS011;5324;50.684;3.862;2023-04-06T00:57:10;17.57;;;13.23;;
10550;SDS011;5324;50.684;3.862;2023-04-06T00:59:36;22.00;;;13.10;;
10550;SDS011;5324;50.684;3.862;2023-04-06T01:02:02;19.73;;;13.03;;
10550;SDS011;5324;50.684;3.862;2023-04-06T01:04:28;21.47;;;13.10;;
10550;SDS011;5324;50.684;3.862;2023-04-06T01:06:55;18.80;;;12.80;;
10550;SDS011;5324;50.684;3.862;2023-04-06T01:09:21;17.57;;;12.13;;
10550;SDS011;5324;50.684;3.862;2023-04-06T01:11:47;19.10;;;12.43;;
10550;SDS011;5324;50.684;3.862;2023-04-06T01:14:13;19.10;;;11.83;;
10550;SDS011;5324;50.684;3.862;2023-04-06T01:16:40;21.90;;;13.10;;
10550;SDS011;5324;50.684;3.862;2023-04-06T01:19:09;16.23;;;11.83;;
10550;SDS011;5324;50.684;3.862;2023-04-06T01:21:36;20.90;;;12.63;;
10550;SDS011;5324;50.684;3.862;2023-04-06T01:24:02;19.00;;;12.83;;
10550;SDS011;5324;50.684;3.862;2023-04-06T01:26:28;22.43;;;12.67;;
10550;SDS011;5324;50.684;3.862;2023-04-06T01:28:55;18.70;;;11.97;;
10550;SDS011;5324;50.684;3.862;2023-04-06T01:31:21;20.40;;;13.10;;
10550;SDS011;5324;50.684;3.862;2023-04-06T01:33:47;20.13;;;13.20;;
10550;SDS011;5324;50.684;3.862;2023-04-06T01:36:14;20.13;;;13.23;;
10550;SDS011;5324;50.684;3.862;2023-04-06T01:38:40;19.93;;;12.97;;
10550;SDS011;5324;50.684;3.862;2023-04-06T01:41:06;22.17;;;13.17;;
10550;SDS011;5324;50.684;3.862;2023-04-06T01:43:32;23.00;;;12.73;;
10550;SDS011;5324;50.684;3.862;2023-04-06T01:45:58;19.43;;;13.37;;
10550;SDS011;5324;50.684;3.862;2023-04-06T01:48:25;19.50;;;13.97;;
10550;SDS011;5324;50.684;3.862;2023-04-06T01:50:52;20.47;;;13.57;;
10550;SDS011;5324;50.684;3.862;2023-04-06T01:53:19;18.83;;;13.17;;
10550;SDS011;5324;50.684;3.862;2023-04-06T01:55:45;20.13;;;13.67;;
10550;SDS011;5324;50.684;3.862;2023-04-06T01:58:11;22.63;;;14.27;;
10550;SDS011;5324;50.684;3.862;2023-04-06T02:00:37;25.80;;;14.93;;
10550;SDS011;5324;50.684;3.862;2023-04-06T02:03:03;21.23;;;14.33;;
10550;SDS011;5324;50.684;3.862;2023-04-06T02:05:30;23.87;;;14.13;;
10550;SDS011;5324;50.684;3.862;2023-04-06T02:07:56;22.87;;;14.43;;
10550;SDS011;5324;50.684;3.862;2023-04-06T02:10:22;21.37;;;15.23;;
10550;SDS011;5324;50.684;3.862;2023-04-06T02:12:49;21.10;;;14.40;;
10550;SDS011;5324;50.684;3.862;2023-04-06T02:15:15;21.60;;;14.13;;
10550;SDS011;5324;50.684;3.862;2023-04-06T02:17:41;22.70;;;15.77;;
10550;SDS011;5324;50.684;3.862;2023-04-06T02:20:08;19.10;;;13.80;;
10550;SDS011;5324;50.684;3.862;2023-04-06T02:22:37;23.20;;;14.53;;
10550;SDS011;5324;50.684;3.862;2023-04-06T02:25:03;22.10;;;14.57;;
10550;SDS011;5324;50.684;3.862;2023-04-06T02:27:29;20.20;;;14.27;;
10550;SDS011;5324;50.684;3.862;2023-04-06T02:29:55;23.57;;;14.83;;
10550;SDS011;5324;50.684;3.862;2023-04-06T02:32:21;21.33;;;14.10;;
10550;SDS011;5324;50.684;3.862;2023-04-06T02:34:47;22.40;;;13.07;;
10550;SDS011;5324;50.684;3.862;2023-04-06T02:37:13;19.87;;;13.97;;
10550;SDS011;5324;50.684;3.862;2023-04-06T02:39:39;20.53;;;13.87;;
10550;SDS011;5324;50.684;3.862;2023-04-06T02:42:05;20.13;;;13.03;;
10550;SDS011;5324;50.684;3.862;2023-04-06T02:44:32;21.23;;;13.47;;
10550;SDS011;5324;50.684;3.862;2023-04-06T02:46:58;18.33;;;13.77;;
10550;SDS011;5324;50.684;3.862;2023-04-06T02:49:24;22.10;;;14.73;;
10550;SDS011;5324;50.684;3.862;2023-04-06T02:51:50;20.17;;;14.33;;
10550;SDS011;5324;50.684;3.862;2023-04-06T02:54:16;20.93;;;13.43;;
10550;SDS011;5324;50.684;3.862;2023-04-06T02:56:43;20.23;;;13.77;;
10550;SDS011;5324;50.684;3.862;2023-04-06T02:59:09;19.00;;;13.83;;
10550;SDS011;5324;50.684;3.862;2023-04-06T03:01:35;18.47;;;13.37;;
10550;SDS011;5324;50.684;3.862;2023-04-06T03:04:01;18.63;;;13.83;;
10550;SDS011;5324;50.684;3.862;2023-04-06T03:06:27;17.60;;;13.60;;
10550;SDS011;5324;50.684;3.862;2023-04-06T03:08:53;19.57;;;14.33;;
10550;SDS011;5324;50.684;3.862;2023-04-06T03:11:20;19.07;;;14.30;;
10550;SDS011;5324;50.684;3.862;2023-04-06T03:13:46;19.47;;;14.37;;
10550;SDS011;5324;50.684;3.862;2023-04-06T03:16:12;21.77;;;14.17;;
10550;SDS011;5324;50.684;3.862;2023-04-06T03:18:38;22.47;;;14.37;;
10550;SDS011;5324;50.684;3.862;2023-04-06T03:21:04;20.97;;;14.27;;
10550;SDS011;5324;50.684;3.862;2023-04-06T03:23:30;19.03;;;14.53;;
10550;SDS011;5324;50.684;3.862;2023-04-06T03:25:56;21.70;;;14.30;;
10550;SDS011;5324;50.684;3.862;2023-04-06T03:28:22;18.53;;;14.03;;
10550;SDS011;5324;50.684;3.862;2023-04-06T03:30:48;18.57;;;14.17;;
10550;SDS011;5324;50.684;3.862;2023-04-06T03:33:15;18.80;;;13.93;;
10550;SDS011;5324;50.684;3.862;2023-04-06T03:35:41;18.30;;;14.13;;
10550;SDS011;5324;50.684;3.862;2023-04-06T03:38:07;18.43;;;14.13;;
10550;SDS011;5324;50.684;3.862;2023-04-06T03:40:33;21.10;;;14.63;;
10550;SDS011;5324;50.684;3.862;2023-04-06T03:42:59;19.47;;;13.90;;
10550;SDS011;5324;50.684;3.862;2023-04-06T03:45:25;19.27;;;14.57;;
10550;SDS011;5324;50.684;3.862;2023-04-06T03:47:51;20.30;;;15.20;;
10550;SDS011;5324;50.684;3.862;2023-04-06T03:50:17;22.57;;;15.33;;
10550;SDS011;5324;50.684;3.862;2023-04-06T03:52:43;23.87;;;18.53;;
10550;SDS011;5324;50.684;3.862;2023-04-06T03:55:09;24.17;;;17.27;;
10550;SDS011;5324;50.684;3.862;2023-04-06T03:57:35;21.50;;;16.03;;
10550;SDS011;5324;50.684;3.862;2023-04-06T04:00:02;22.10;;;15.30;;
10550;SDS011;5324;50.684;3.862;2023-04-06T04:02:28;17.70;;;13.60;;
10550;SDS011;5324;50.684;3.862;2023-04-06T04:04:54;23.73;;;14.33;;
10550;SDS011;5324;50.684;3.862;2023-04-06T04:07:20;21.13;;;13.97;;
10550;SDS011;5324;50.684;3.862;2023-04-06T04:09:46;19.60;;;14.07;;
10550;SDS011;5324;50.684;3.862;2023-04-06T04:12:13;23.37;;;13.97;;
10550;SDS011;5324;50.684;3.862;2023-04-06T04:14:41;20.07;;;14.80;;
10550;SDS011;5324;50.684;3.862;2023-04-06T04:17:08;21.07;;;15.27;;
10550;SDS011;5324;50.684;3.862;2023-04-06T04:19:35;20.10;;;15.17;;
10550;SDS011;5324;50.684;3.862;2023-04-06T04:22:01;22.53;;;14.47;;
10550;SDS011;5324;50.684;3.862;2023-04-06T04:24:29;19.83;;;14.50;;
10550;SDS011;5324;50.684;3.862;2023-04-06T04:26:55;19.37;;;14.20;;
10550;SDS011;5324;50.684;3.862;2023-04-06T04:29:22;20.33;;;14.73;;
10550;SDS011;5324;50.684;3.862;2023-04-06T04:31:48;19.43;;;13.67;;
10550;SDS011;5324;50.684;3.862;2023-04-06T04:34:14;19.50;;;14.57;;
10550;SDS011;5324;50.684;3.862;2023-04-06T04:36:41;21.97;;;14.17;;
10550;SDS011;5324;50.684;3.862;2023-04-06T04:39:07;19.57;;;14.63;;
10550;SDS011;5324;50.684;3.862;2023-04-06T04:41:33;19.30;;;14.17;;
10550;SDS011;5324;50.684;3.862;2023-04-06T04:44:00;20.93;;;14.40;;
10550;SDS011;5324;50.684;3.862;2023-04-06T04:46:26;18.60;;;14.20;;
10550;SDS011;5324;50.684;3.862;2023-04-06T04:48:52;21.03;;;13.67;;
10550;SDS011;5324;50.684;3.862;2023-04-06T04:51:18;17.97;;;13.97;;
10550;SDS011;5324;50.684;3.862;2023-04-06T04:53:44;19.10;;;13.97;;
10550;SDS011;5324;50.684;3.862;2023-04-06T04:56:11;19.77;;;13.73;;
10550;SDS011;5324;50.684;3.862;2023-04-06T04:58:37;18.40;;;13.47;;
10550;SDS011;5324;50.684;3.862;2023-04-06T05:01:03;20.93;;;12.97;;
10550;SDS011;5324;50.684;3.862;2023-04-06T05:03:29;22.60;;;14.30;;
10550;SDS011;5324;50.684;3.862;2023-04-06T05:05:55;19.23;;;14.33;;
10550;SDS011;5324;50.684;3.862;2023-04-06T05:08:21;20.60;;;14.00;;
10550;SDS011;5324;50.684;3.862;2023-04-06T05:10:47;22.83;;;15.10;;
10550;SDS011;5324;50.684;3.862;2023-04-06T05:13:14;28.60;;;18.63;;
10550;SDS011;5324;50.684;3.862;2023-04-06T05:15:40;32.57;;;21.80;;
10550;SDS011;5324;50.684;3.862;2023-04-06T05:18:08;22.30;;;16.80;;
10550;SDS011;5324;50.684;3.862;2023-04-06T05:20:34;22.47;;;15.47;;
10550;SDS011;5324;50.684;3.862;2023-04-06T05:23:00;24.97;;;18.57;;
10550;SDS011;5324;50.684;3.862;2023-04-06T05:25:26;20.07;;;15.00;;
10550;SDS011;5324;50.684;3.862;2023-04-06T05:27:53;21.50;;;14.90;;
10550;SDS011;5324;50.684;3.862;2023-04-06T05:30:19;19.47;;;13.87;;
10550;SDS011;5324;50.684;3.862;2023-04-06T05:32:46;21.20;;;14.00;;
10550;SDS011;5324;50.684;3.862;2023-04-06T05:35:12;20.23;;;14.80;;
10550;SDS011;5324;50.684;3.862;2023-04-06T05:37:38;24.03;;;14.67;;
10550;SDS011;5324;50.684;3.862;2023-04-06T05:40:05;21.23;;;14.97;;
10550;SDS011;5324;50.684;3.862;2023-04-06T05:42:41;23.93;;;16.17;;
10550;SDS011;5324;50.684;3.862;2023-04-06T05:45:07;23.00;;;15.03;;
10550;SDS011;5324;50.684;3.862;2023-04-06T05:47:34;22.03;;;15.40;;
10550;SDS011;5324;50.684;3.862;2023-04-06T05:50:00;22.90;;;15.10;;
10550;SDS011;5324;50.684;3.862;2023-04-06T05:52:26;22.10;;;14.87;;
10550;SDS011;5324;50.684;3.862;2023-04-06T05:54:52;21.63;;;15.50;;
10550;SDS011;5324;50.684;3.862;2023-04-06T05:57:18;22.47;;;14.63;;
10550;SDS011;5324;50.684;3.862;2023-04-06T05:59:45;20.10;;;14.90;;
10550;SDS011;5324;50.684;3.862;2023-04-06T06:02:11;23.80;;;14.33;;
10550;SDS011;5324;50.684;3.862;2023-04-06T06:04:38;22.43;;;14.53;;
10550;SDS011;5324;50.684;3.862;2023-04-06T06:07:04;19.63;;;14.43;;
10550;SDS011;5324;50.684;3.862;2023-04-06T06:09:30;21.60;;;14.73;;
10550;SDS011;5324;50.684;3.862;2023-04-06T06:11:56;20.27;;;15.13;;
10550;SDS011;5324;50.684;3.862;2023-04-06T06:14:22;22.07;;;15.33;;
10550;SDS011;5324;50.684;3.862;2023-04-06T06:16:50;20.80;;;14.33;;
10550;SDS011;5324;50.684;3.862;2023-04-06T06:19:16;21.33;;;14.50;;
10550;SDS011;5324;50.684;3.862;2023-04-06T06:21:42;19.20;;;12.90;;
10550;SDS011;5324;50.684;3.862;2023-04-06T06:24:08;20.70;;;14.00;;
10550;SDS011;5324;50.684;3.862;2023-04-06T06:26:34;19.67;;;13.37;;
10550;SDS011;5324;50.684;3.862;2023-04-06T06:29:02;18.07;;;13.03;;
10550;SDS011;5324;50.684;3.862;2023-04-06T06:31:30;23.73;;;13.47;;
10550;SDS011;5324;50.684;3.862;2023-04-06T06:33:56;19.17;;;12.60;;
10550;SDS011;5324;50.684;3.862;2023-04-06T06:36:22;17.80;;;12.40;;
10550;SDS011;5324;50.684;3.862;2023-04-06T06:38:48;14.97;;;11.37;;
10550;SDS011;5324;50.684;3.862;2023-04-06T06:41:14;19.10;;;11.87;;
10550;SDS011;5324;50.684;3.862;2023-04-06T06:43:40;20.13;;;11.97;;
10550;SDS011;5324;50.684;3.862;2023-04-06T06:46:06;16.73;;;11.80;;
10550;SDS011;5324;50.684;3.862;2023-04-06T06:48:32;16.47;;;11.93;;
10550;SDS011;5324;50.684;3.862;2023-04-06T06:50:58;19.20;;;11.80;;
10550;SDS011;5324;50.684;3.862;2023-04-06T06:53:25;16.53;;;11.83;;
10550;SDS011;5324;50.684;3.862;2023-04-06T06:55:51;15.63;;;11.40;;
10550;SDS011;5324;50.684;3.862;2023-04-06T06:58:17;16.93;;;11.03;;
10550;SDS011;5324;50.684;3.862;2023-04-06T07:00:45;15.10;;;10.70;;
10550;SDS011;5324;50.684;3.862;2023-04-06T07:03:11;15.07;;;10.03;;
10550;SDS011;5324;50.684;3.862;2023-04-06T07:05:37;16.17;;;11.00;;
10550;SDS011;5324;50.684;3.862;2023-04-06T07:08:03;13.60;;;10.50;;
10550;SDS011;5324;50.684;3.862;2023-04-06T07:10:29;16.00;;;10.50;;
10550;SDS011;5324;50.684;3.862;2023-04-06T07:12:55;16.13;;;11.03;;
10550;SDS011;5324;50.684;3.862;2023-04-06T07:15:21;15.33;;;10.63;;
10550;SDS011;5324;50.684;3.862;2023-04-06T07:17:47;15.73;;;9.30;;
10550;SDS011;5324;50.684;3.862;2023-04-06T07:20:14;14.27;;;9.17;;
10550;SDS011;5324;50.684;3.862;2023-04-06T07:22:42;13.73;;;9.03;;
10550;SDS011;5324;50.684;3.862;2023-04-06T07:25:08;15.70;;;9.57;;
10550;SDS011;5324;50.684;3.862;2023-04-06T07:27:34;15.70;;;9.70;;
10550;SDS011;5324;50.684;3.862;2023-04-06T07:30:00;13.07;;;8.90;;
10550;SDS011;5324;50.684;3.862;2023-04-06T07:32:26;13.93;;;9.43;;
10550;SDS011;5324;50.684;3.862;2023-04-06T07:34:52;14.27;;;8.97;;
10550;SDS011;5324;50.684;3.862;2023-04-06T07:37:18;13.73;;;9.40;;
10550;SDS011;5324;50.684;3.862;2023-04-06T07:39:45;15.10;;;8.80;;
10550;SDS011;5324;50.684;3.862;2023-04-06T07:42:11;14.37;;;9.40;;
10550;SDS011;5324;50.684;3.862;2023-04-06T07:44:37;13.97;;;8.87;;
10550;SDS011;5324;50.684;3.862;2023-04-06T07:47:03;13.13;;;8.83;;
10550;SDS011;5324;50.684;3.862;2023-04-06T07:49:29;15.30;;;10.27;;
10550;SDS011;5324;50.684;3.862;2023-04-06T07:51:57;15.47;;;10.37;;
10550;SDS011;5324;50.684;3.862;2023-04-06T07:54:23;14.30;;;9.50;;
10550;SDS011;5324;50.684;3.862;2023-04-06T07:56:49;14.70;;;9.77;;
10550;SDS011;5324;50.684;3.862;2023-04-06T07:59:15;15.77;;;10.10;;
10550;SDS011;5324;50.684;3.862;2023-04-06T08:01:41;13.47;;;9.23;;
10550;SDS011;5324;50.684;3.862;2023-04-06T08:04:07;14.40;;;9.20;;
10550;SDS011;5324;50.684;3.862;2023-04-06T08:06:33;11.90;;;8.77;;
10550;SDS011;5324;50.684;3.862;2023-04-06T08:08:59;13.40;;;7.80;;
10550;SDS011;5324;50.684;3.862;2023-04-06T08:11:25;12.97;;;8.57;;
10550;SDS011;5324;50.684;3.862;2023-04-06T08:13:51;11.07;;;7.57;;
10550;SDS011;5324;50.684;3.862;2023-04-06T08:16:18;13.23;;;7.90;;
10550;SDS011;5324;50.684;3.862;2023-04-06T08:18:44;13.60;;;8.27;;
10550;SDS011;5324;50.684;3.862;2023-04-06T08:21:10;10.50;;;7.20;;
10550;SDS011;5324;50.684;3.862;2023-04-06T08:23:36;11.80;;;7.90;;
10550;SDS011;5324;50.684;3.862;2023-04-06T08:26:02;12.13;;;7.93;;
10550;SDS011;5324;50.684;3.862;2023-04-06T08:28:28;11.30;;;7.63;;
10550;SDS011;5324;50.684;3.862;2023-04-06T08:30:54;11.17;;;7.67;;
10550;SDS011;5324;50.684;3.862;2023-04-06T08:33:20;10.70;;;7.43;;
10550;SDS011;5324;50.684;3.862;2023-04-06T08:35:46;9.20;;;6.30;;
10550;SDS011;5324;50.684;3.862;2023-04-06T08:38:12;8.57;;;6.67;;
10550;SDS011;5324;50.684;3.862;2023-04-06T08:40:39;9.60;;;7.13;;
10550;SDS011;5324;50.684;3.862;2023-04-06T08:43:08;8.20;;;6.37;;
10550;SDS011;5324;50.684;3.862;2023-04-06T08:45:36;10.97;;;6.60;;
10550;SDS011;5324;50.684;3.862;2023-04-06T08:48:02;9.90;;;6.50;;
10550;SDS011;5324;50.684;3.862;2023-04-06T08:50:32;9.30;;;7.13;;
10550;SDS011;5324;50.684;3.862;2023-04-06T08:53:00;8.97;;;5.90;;
10550;SDS011;5324;50.684;3.862;2023-04-06T08:55:26;11.07;;;6.90;;
10550;SDS011;5324;50.684;3.862;2023-04-06T08:57:52;11.43;;;7.30;;
10550;SDS011;5324;50.684;3.862;2023-04-06T09:00:21;8.90;;;6.30;;
10550;SDS011;5324;50.684;3.862;2023-04-06T09:02:47;9.70;;;6.87;;
10550;SDS011;5324;50.684;3.862;2023-04-06T09:05:14;9.37;;;6.73;;
10550;SDS011;5324;50.684;3.862;2023-04-06T09:07:40;9.43;;;6.50;;
10550;SDS011;5324;50.684;3.862;2023-04-06T09:10:07;9.17;;;6.70;;
10550;SDS011;5324;50.684;3.862;2023-04-06T09:12:34;10.30;;;7.17;;
10550;SDS011;5324;50.684;3.862;2023-04-06T09:15:00;11.60;;;6.77;;
10550;SDS011;5324;50.684;3.862;2023-04-06T09:17:27;8.77;;;6.63;;
10550;SDS011;5324;50.684;3.862;2023-04-06T09:19:54;9.57;;;6.77;;
10550;SDS011;5324;50.684;3.862;2023-04-06T09:22:21;11.33;;;6.50;;
10550;SDS011;5324;50.684;3.862;2023-04-06T09:24:49;13.07;;;6.90;;
10550;SDS011;5324;50.684;3.862;2023-04-06T09:27:15;9.87;;;6.70;;
10550;SDS011;5324;50.684;3.862;2023-04-06T09:29:42;9.50;;;7.00;;
10550;SDS011;5324;50.684;3.862;2023-04-06T09:32:08;8.50;;;5.73;;
10550;SDS011;5324;50.684;3.862;2023-04-06T09:34:41;8.17;;;6.50;;
10550;SDS011;5324;50.684;3.862;2023-04-06T09:39:39;8.40;;;6.93;;
10550;SDS011;5324;50.684;3.862;2023-04-06T09:42:06;7.87;;;5.83;;
10550;SDS011;5324;50.684;3.862;2023-04-06T09:44:32;8.30;;;6.27;;
10550;SDS011;5324;50.684;3.862;2023-04-06T09:46:58;8.73;;;6.30;;
10550;SDS011;5324;50.684;3.862;2023-04-06T09:49:24;9.27;;;6.60;;
10550;SDS011;5324;50.684;3.862;2023-04-06T09:51:53;9.43;;;6.40;;
10550;SDS011;5324;50.684;3.862;2023-04-06T09:54:22;9.77;;;6.77;;
10550;SDS011;5324;50.684;3.862;2023-04-06T09:59:31;9.90;;;7.10;;
10550;SDS011;5324;50.684;3.862;2023-04-06T10:02:01;8.80;;;6.60;;
10550;SDS011;5324;50.684;3.862;2023-04-06T10:04:39;8.60;;;6.50;;
10550;SDS011;5324;50.684;3.862;2023-04-06T10:07:07;8.23;;;6.67;;
10550;SDS011;5324;50.684;3.862;2023-04-06T10:09:34;10.37;;;6.73;;
10550;SDS011;5324;50.684;3.862;2023-04-06T10:12:05;9.53;;;7.47;;
10550;SDS011;5324;50.684;3.862;2023-04-06T10:14:34;9.00;;;7.13;;
10550;SDS011;5324;50.684;3.862;2023-04-06T10:17:02;8.10;;;6.33;;
10550;SDS011;5324;50.684;3.862;2023-04-06T10:19:29;9.53;;;7.30;;
10550;SDS011;5324;50.684;3.862;2023-04-06T10:21:59;8.87;;;6.60;;
10550;SDS011;5324;50.684;3.862;2023-04-06T10:24:25;9.93;;;7.27;;
10550;SDS011;5324;50.684;3.862;2023-04-06T10:27:02;9.23;;;7.30;;
10550;SDS011;5324;50.684;3.862;2023-04-06T10:29:40;9.17;;;7.73;;
10550;SDS011;5324;50.684;3.862;2023-04-06T10:32:06;8.70;;;7.07;;
10550;SDS011;5324;50.684;3.862;2023-04-06T10:34:35;9.57;;;7.37;;
10550;SDS011;5324;50.684;3.862;2023-04-06T10:37:12;10.30;;;8.07;;
10550;SDS011;5324;50.684;3.862;2023-04-06T10:39:47;9.93;;;7.30;;
10550;SDS011;5324;50.684;3.862;2023-04-06T10:42:23;10.07;;;7.20;;
10550;SDS011;5324;50.684;3.862;2023-04-06T10:44:49;11.67;;;8.17;;
10550;SDS011;5324;50.684;3.862;2023-04-06T10:47:16;9.47;;;7.50;;
10550;SDS011;5324;50.684;3.862;2023-04-06T10:49:43;10.03;;;7.17;;
10550;SDS011;5324;50.684;3.862;2023-04-06T10:52:09;10.97;;;7.33;;
10550;SDS011;5324;50.684;3.862;2023-04-06T10:54:36;8.97;;;7.53;;
10550;SDS011;5324;50.684;3.862;2023-04-06T10:57:06;10.53;;;7.67;;
10550;SDS011;5324;50.684;3.862;2023-04-06T10:59:34;9.97;;;7.27;;
10550;SDS011;5324;50.684;3.862;2023-04-06T11:02:00;8.43;;;6.97;;
10550;SDS011;5324;50.684;3.862;2023-04-06T11:04:26;10.60;;;7.60;;
10550;SDS011;5324;50.684;3.862;2023-04-06T11:06:52;10.03;;;7.37;;
10550;SDS011;5324;50.684;3.862;2023-04-06T11:09:26;11.07;;;7.80;;
10550;SDS011;5324;50.684;3.862;2023-04-06T11:11:52;8.33;;;7.43;;
10550;SDS011;5324;50.684;3.862;2023-04-06T11:14:19;11.47;;;8.20;;
10550;SDS011;5324;50.684;3.862;2023-04-06T11:16:46;9.80;;;7.77;;
10550;SDS011;5324;50.684;3.862;2023-04-06T11:19:15;11.30;;;7.30;;
10550;SDS011;5324;50.684;3.862;2023-04-06T11:21:46;8.87;;;7.07;;
10550;SDS011;5324;50.684;3.862;2023-04-06T11:24:22;8.80;;;6.67;;
10550;SDS011;5324;50.684;3.862;2023-04-06T11:26:52;7.60;;;6.80;;
10550;SDS011;5324;50.684;3.862;2023-04-06T11:29:19;9.30;;;7.17;;
10550;SDS011;5324;50.684;3.862;2023-04-06T11:31:46;10.77;;;7.53;;
10550;SDS011;5324;50.684;3.862;2023-04-06T11:34:15;9.40;;;7.60;;
10550;SDS011;5324;50.684;3.862;2023-04-06T11:36:41;10.13;;;7.27;;
10550;SDS011;5324;50.684;3.862;2023-04-06T11:39:08;9.13;;;7.17;;
10550;SDS011;5324;50.684;3.862;2023-04-06T11:41:34;9.83;;;7.80;;
10550;SDS011;5324;50.684;3.862;2023-04-06T11:44:01;9.63;;;7.27;;
10550;SDS011;5324;50.684;3.862;2023-04-06T11:46:28;8.63;;;7.40;;
10550;SDS011;5324;50.684;3.862;2023-04-06T11:48:58;9.53;;;7.57;;
10550;SDS011;5324;50.684;3.862;2023-04-06T11:51:25;10.57;;;8.20;;
10550;SDS011;5324;50.684;3.862;2023-04-06T11:53:52;10.63;;;8.17;;
10550;SDS011;5324;50.684;3.862;2023-04-06T11:56:27;8.87;;;7.33;;
10550;SDS011;5324;50.684;3.862;2023-04-06T11:58:54;9.13;;;7.50;;
10550;SDS011;5324;50.684;3.862;2023-04-06T12:01:20;7.53;;;6.73;;
10550;SDS011;5324;50.684;3.862;2023-04-06T12:03:46;8.27;;;6.93;;
10550;SDS011;5324;50.684;3.862;2023-04-06T12:06:12;9.43;;;7.67;;
10550;SDS011;5324;50.684;3.862;2023-04-06T12:08:38;9.40;;;7.87;;
10550;SDS011;5324;50.684;3.862;2023-04-06T12:11:04;9.57;;;7.80;;
10550;SDS011;5324;50.684;3.862;2023-04-06T12:13:30;7.93;;;7.13;;
10550;SDS011;5324;50.684;3.862;2023-04-06T12:15:56;10.40;;;7.97;;
10550;SDS011;5324;50.684;3.862;2023-04-06T12:18:22;9.13;;;8.10;;
10550;SDS011;5324;50.684;3.862;2023-04-06T12:20:48;10.77;;;8.10;;
10550;SDS011;5324;50.684;3.862;2023-04-06T12:23:15;10.33;;;7.83;;
10550;SDS011;5324;50.684;3.862;2023-04-06T12:25:41;12.23;;;8.73;;
10550;SDS011;5324;50.684;3.862;2023-04-06T12:28:09;11.30;;;8.43;;
10550;SDS011;5324;50.684;3.862;2023-04-06T12:30:35;11.23;;;7.90;;
10550;SDS011;5324;50.684;3.862;2023-04-06T12:33:01;8.97;;;7.70;;
10550;SDS011;5324;50.684;3.862;2023-04-06T12:35:27;10.97;;;8.00;;
10550;SDS011;5324;50.684;3.862;2023-04-06T12:37:53;12.40;;;8.17;;
10550;SDS011;5324;50.684;3.862;2023-04-06T12:40:19;10.17;;;8.07;;
10550;SDS011;5324;50.684;3.862;2023-04-06T12:42:46;10.27;;;8.10;;
10550;SDS011;5324;50.684;3.862;2023-04-06T12:45:12;9.13;;;7.57;;
10550;SDS011;5324;50.684;3.862;2023-04-06T12:47:38;9.87;;;7.83;;
10550;SDS011;5324;50.684;3.862;2023-04-06T12:50:04;9.27;;;8.10;;
10550;SDS011;5324;50.684;3.862;2023-04-06T12:52:31;10.57;;;8.30;;
10550;SDS011;5324;50.684;3.862;2023-04-06T12:55:00;9.47;;;7.60;;
10550;SDS011;5324;50.684;3.862;2023-04-06T12:57:26;11.17;;;7.87;;
10550;SDS011;5324;50.684;3.862;2023-04-06T12:59:52;9.43;;;8.10;;
10550;SDS011;5324;50.684;3.862;2023-04-06T13:02:18;9.50;;;8.47;;
10550;SDS011;5324;50.684;3.862;2023-04-06T13:04:48;9.87;;;7.80;;
10550;SDS011;5324;50.684;3.862;2023-04-06T13:07:15;10.30;;;7.80;;
10550;SDS011;5324;50.684;3.862;2023-04-06T13:09:41;10.63;;;8.17;;
10550;SDS011;5324;50.684;3.862;2023-04-06T13:12:07;11.23;;;8.23;;
10550;SDS011;5324;50.684;3.862;2023-04-06T13:14:33;9.33;;;7.93;;
10550;SDS011;5324;50.684;3.862;2023-04-06T13:16:59;13.17;;;9.50;;
10550;SDS011;5324;50.684;3.862;2023-04-06T13:19:25;12.43;;;8.83;;
10550;SDS011;5324;50.684;3.862;2023-04-06T13:21:52;12.03;;;8.80;;
10550;SDS011;5324;50.684;3.862;2023-04-06T13:24:18;9.97;;;8.30;;
10550;SDS011;5324;50.684;3.862;2023-04-06T13:26:44;8.90;;;7.20;;
10550;SDS011;5324;50.684;3.862;2023-04-06T13:29:10;11.27;;;8.00;;
10550;SDS011;5324;50.684;3.862;2023-04-06T13:31:36;10.87;;;8.40;;
10550;SDS011;5324;50.684;3.862;2023-04-06T13:34:03;10.00;;;8.60;;
10550;SDS011;5324;50.684;3.862;2023-04-06T13:36:30;11.23;;;8.03;;
10550;SDS011;5324;50.684;3.862;2023-04-06T13:38:57;13.07;;;8.13;;
10550;SDS011;5324;50.684;3.862;2023-04-06T13:41:23;11.47;;;8.23;;
10550;SDS011;5324;50.684;3.862;2023-04-06T13:43:50;9.43;;;7.77;;
10550;SDS011;5324;50.684;3.862;2023-04-06T13:46:16;10.03;;;7.33;;
10550;SDS011;5324;50.684;3.862;2023-04-06T13:48:43;11.67;;;8.37;;
10550;SDS011;5324;50.684;3.862;2023-04-06T13:51:12;10.80;;;8.63;;
10550;SDS011;5324;50.684;3.862;2023-04-06T13:53:38;9.87;;;7.90;;
10550;SDS011;5324;50.684;3.862;2023-04-06T13:56:05;10.70;;;8.03;;
10550;SDS011;5324;50.684;3.862;2023-04-06T13:58:31;11.23;;;8.30;;
10550;SDS011;5324;50.684;3.862;2023-04-06T14:01:04;9.20;;;8.03;;
10550;SDS011;5324;50.684;3.862;2023-04-06T14:03:32;9.37;;;7.90;;
10550;SDS011;5324;50.684;3.862;2023-04-06T14:05:59;11.17;;;8.27;;
10550;SDS011;5324;50.684;3.862;2023-04-06T14:08:25;10.07;;;8.20;;
10550;SDS011;5324;50.684;3.862;2023-04-06T14:10:51;12.80;;;8.20;;
10550;SDS011;5324;50.684;3.862;2023-04-06T14:13:19;12.07;;;8.60;;
10550;SDS011;5324;50.684;3.862;2023-04-06T14:15:45;9.60;;;8.10;;
10550;SDS011;5324;50.684;3.862;2023-04-06T14:18:11;11.33;;;7.80;;
10550;SDS011;5324;50.684;3.862;2023-04-06T14:20:37;9.07;;;7.63;;
10550;SDS011;5324;50.684;3.862;2023-04-06T14:23:04;10.17;;;7.70;;
10550;SDS011;5324;50.684;3.862;2023-04-06T14:25:31;13.23;;;8.80;;
10550;SDS011;5324;50.684;3.862;2023-04-06T14:27:59;11.27;;;8.00;;
10550;SDS011;5324;50.684;3.862;2023-04-06T14:30:26;12.10;;;8.50;;
10550;SDS011;5324;50.684;3.862;2023-04-06T14:32:52;10.50;;;8.77;;
10550;SDS011;5324;50.684;3.862;2023-04-06T14:35:18;12.23;;;9.00;;
10550;SDS011;5324;50.684;3.862;2023-04-06T14:37:44;10.83;;;8.63;;
10550;SDS011;5324;50.684;3.862;2023-04-06T14:40:10;11.63;;;9.17;;
10550;SDS011;5324;50.684;3.862;2023-04-06T14:42:36;12.20;;;7.97;;
10550;SDS011;5324;50.684;3.862;2023-04-06T14:45:02;13.07;;;7.93;;